Time;durP1;ratioP1;P1;durP2;ratioP2;P2;SDS_P1;SDS_P2;PMS_P1;PMS_P2;Temp;Humidity;BMP_temperature;BMP_pressure;BME280_temperature;BME280_humidity;BME280_pressure;Samples;Min_cycle;Max_cycle;Signal;HPM_P1;HPM_P2
2022/11/30 00:02:19;;;;;;;;;26.33;22.00;;;;;10.15;75.76;101600.31;5070803;28;47233;-81
2022/11/30 00:04:47;;;;;;;;;24.50;24.00;;;;;10.20;75.86;101605.00;5059233;28;45087;-79
2022/11/30 00:07:12;;;;;;;;;28.00;23.25;;;;;10.20;75.55;101601.50;5049646;28;51005;-83
2022/11/30 00:09:37;;;;;;;;;25.75;23.75;;;;;10.40;75.64;101634.03;5050336;28;45215;-84
2022/11/30 00:12:03;;;;;;;;;34.67;24.33;;;;;10.40;75.74;101634.03;5055372;28;61980;-84
2022/11/30 00:14:28;;;;;;;;;23.75;22.00;;;;;10.18;75.27;101590.88;5069395;28;45375;-85
2022/11/30 00:16:54;;;;;;;;;34.00;28.67;;;;;10.23;75.21;101601.63;5058474;28;45061;-85
2022/11/30 00:19:19;;;;;;;;;28.00;23.75;;;;;10.27;75.49;101606.25;5049945;28;45245;-84
2022/11/30 00:21:44;;;;;;;;;28.75;25.00;;;;;10.40;75.52;101623.53;5049684;28;45142;-84
2022/11/30 00:24:10;;;;;;;;;29.00;22.75;;;;;10.39;75.43;101622.59;5050035;28;45068;-85
2022/11/30 00:26:35;;;;;;;;;23.75;22.25;;;;;10.36;75.24;101619.84;5050245;28;44678;-83
2022/11/30 00:29:00;;;;;;;;;31.00;25.25;;;;;10.31;75.37;101609.09;5061142;28;45167;-84
2022/11/30 00:31:26;;;;;;;;;31.67;27.67;;;;;10.40;75.16;101619.16;5069744;28;50493;-84
2022/11/30 00:33:51;;;;;;;;;30.00;24.50;;;;;10.39;75.35;101619.97;5070514;28;45308;-84
2022/11/30 00:36:20;;;;;;;;;23.00;22.00;;;;;10.40;75.13;101613.00;5029278;28;50839;-85
2022/11/30 00:38:45;;;;;;;;;22.75;22.00;;;;;10.39;75.54;101612.09;5029947;28;45108;-85
2022/11/30 00:41:11;;;;;;;;;26.00;24.00;;;;;10.40;75.76;101613.91;5029644;28;45713;-83
2022/11/30 00:43:36;;;;;;;;;27.50;24.50;;;;;10.41;75.14;101614.81;5027414;28;45170;-86
2022/11/30 00:46:02;;;;;;;;;28.50;22.25;;;;;10.14;74.89;101564.38;5029694;28;45073;-85
2022/11/30 00:48:28;;;;;;;;;32.50;25.75;;;;;10.40;75.17;101605.13;5029668;28;45087;-85
2022/11/30 00:50:53;;;;;;;;;36.25;26.00;;;;;10.39;75.04;101608.56;5029487;28;45854;-80
2022/11/30 00:53:20;;;;;;;;;23.75;21.00;;;;;10.32;75.08;101596.84;5027741;28;45066;-85
2022/11/30 00:55:46;;;;;;;;;22.00;21.25;;;;;10.35;74.95;101602.28;5029622;28;45057;-83
2022/11/30 00:58:13;;;;;;;;;25.00;21.50;;;;;10.33;74.89;101602.19;5029622;28;45006;-84
2022/11/30 01:00:38;;;;;;;;;28.50;23.75;;;;;10.22;74.98;101590.22;5028765;28;45414;-86
2022/11/30 01:03:04;;;;;;;;;22.25;20.75;;;;;10.34;75.25;101608.31;5029536;28;44998;-86
2022/11/30 01:05:29;;;;;;;;;23.00;20.00;;;;;10.35;75.26;101607.53;5051770;28;44949;-84
2022/11/30 01:07:54;;;;;;;;;23.25;19.25;;;;;10.30;75.11;101596.78;5069937;28;45265;-85
2022/11/30 01:10:21;;;;;;;;;23.00;21.75;;;;;10.37;74.55;101607.59;5068984;28;58998;-85
2022/11/30 01:12:47;;;;;;;;;22.50;16.00;;;;;10.38;74.74;101606.75;5070161;28;45679;-86
2022/11/30 01:15:12;;;;;;;;;16.50;15.50;;;;;10.23;74.76;101577.97;5067765;28;45149;-84
2022/11/30 01:17:38;;;;;;;;;19.33;18.33;;;;;10.22;75.00;101582.34;5050626;28;45204;-87
2022/11/30 01:20:05;;;;;;;;;22.33;18.33;;;;;10.22;75.04;101577.06;5059796;28;50172;-85
2022/11/30 01:22:30;;;;;;;;;26.75;22.25;;;;;10.38;74.86;101609.41;5070406;28;45393;-82
2022/11/30 01:24:55;;;;;;;;;28.25;25.00;;;;;10.38;74.80;101604.13;5055692;28;44954;-84
2022/11/30 01:27:21;;;;;;;;;22.00;21.00;;;;;10.36;74.82;101601.44;5050723;28;49961;-85
2022/11/30 01:29:46;;;;;;;;;25.00;22.75;;;;;10.37;74.72;101602.34;5011384;28;45913;-85
2022/11/30 01:32:11;;;;;;;;;24.00;22.00;;;;;10.26;74.38;101592.22;5041700;28;53524;-84
2022/11/30 01:34:37;;;;;;;;;24.33;21.33;;;;;10.31;74.36;101603.84;5049124;28;57176;-85
2022/11/30 01:37:02;;;;;;;;;24.00;20.00;;;;;10.19;74.38;101587.41;5048750;28;58781;-84
2022/11/30 01:39:27;;;;;;;;;12.50;9.50;;;;;10.25;74.55;101602.66;5049192;28;45460;-84
2022/11/30 01:41:53;;;;;;;;;24.67;22.00;;;;;10.29;74.58;101608.09;5049513;28;55932;-81
2022/11/30 01:44:25;;;;;;;;;21.75;19.00;;;;;10.28;74.86;101608.03;5048996;28;45101;-84
2022/11/30 01:46:58;;;;;;;;;23.75;22.00;;;;;10.13;74.70;101586.22;5049275;28;45206;-85
2022/11/30 01:49:43;;;;;;;;;25.25;21.75;;;;;10.28;74.74;101611.56;5049003;28;45558;-85
2022/11/30 01:52:17;;;;;;;;;18.25;16.25;;;;;10.24;74.69;101613.97;5028456;28;45475;-81
2022/11/30 01:54:52;;;;;;;;;22.25;20.25;;;;;9.83;74.61;101539.22;5027440;28;45396;-85
2022/11/30 01:57:30;;;;;;;;;21.75;19.25;;;;;10.15;74.72;101601.25;5028096;28;45216;-84
2022/11/30 01:59:59;;;;;;;;;20.25;19.50;;;;;10.05;74.81;101581.50;5028595;28;45405;-85
2022/11/30 02:02:42;;;;;;;;;23.25;21.00;;;;;9.99;75.04;101572.41;5027813;28;45213;-80
2022/11/30 02:05:09;;;;;;;;;24.25;23.00;;;;;10.11;74.86;101596.66;5028839;28;45040;-86
2022/11/30 02:07:34;;;;;;;;;27.25;22.00;;;;;10.24;75.21;101617.47;5028359;28;45176;-83
2022/11/30 02:10:00;;;;;;;;;21.67;19.00;;;;;10.24;74.86;101617.47;5028233;28;55732;-84
2022/11/30 02:12:36;;;;;;;;;23.67;21.67;;;;;10.03;74.90;101583.13;5027418;28;60591;-80
2022/11/30 02:15:10;;;;;;;;;22.25;18.50;;;;;10.19;74.82;101608.44;5027709;28;45394;-80
2022/11/30 02:18:04;;;;;;;;;22.00;20.25;;;;;10.14;74.94;101612.56;5027692;28;45301;-80
2022/11/30 02:20:57;;;;;;;;;25.00;21.00;;;;;9.99;75.06;101589.06;5013784;28;45390;-81
2022/11/30 02:23:41;;;;;;;;;27.25;21.50;;;;;10.11;74.82;101616.78;5028336;28;45589;-85
2022/11/30 02:26:28;;;;;;;;;23.50;21.25;;;;;10.08;74.86;101612.25;5031115;28;45206;-85
2022/11/30 02:29:05;;;;;;;;;21.00;20.00;;;;;10.09;75.11;101616.69;5068587;28;45147;-85
2022/11/30 02:31:48;;;;;;;;;27.50;23.25;;;;;10.08;74.91;101618.41;5050185;28;47659;-86
2022/11/30 02:34:16;;;;;;;;;22.75;21.50;;;;;10.08;74.93;101614.88;5066245;28;45344;-85
2022/11/30 02:36:47;;;;;;;;;23.75;21.25;;;;;10.08;74.96;101609.63;5048127;28;45195;-85
2022/11/30 02:39:12;;;;;;;;;22.25;21.00;;;;;10.04;74.90;101602.41;5048447;28;45260;-85
2022/11/30 02:41:38;;;;;;;;;24.75;21.75;;;;;10.06;74.99;101608.66;5048014;28;48335;-85
2022/11/30 02:44:05;;;;;;;;;27.75;21.75;;;;;9.92;75.14;101578.19;5047743;28;45636;-86
2022/11/30 02:46:42;;;;;;;;;23.50;19.25;;;;;10.08;75.01;101615.78;5047624;28;45117;-84
2022/11/30 02:49:21;;;;;;;;;22.00;20.00;;;;;10.00;75.11;101600.47;5048379;28;45147;-84
2022/11/30 02:51:49;;;;;;;;;25.50;20.50;;;;;9.95;74.91;101595.00;5047464;28;45302;-84
2022/11/30 02:54:14;;;;;;;;;22.75;18.25;;;;;9.82;74.90;101569.84;5047809;28;45658;-83
2022/11/30 02:56:40;;;;;;;;;28.00;21.25;;;;;9.98;75.13;101607.38;5047746;28;45063;-85
2022/11/30 02:59:05;;;;;;;;;21.75;19.00;;;;;9.97;75.03;101601.22;5047927;28;45362;-84
2022/11/30 03:01:30;;;;;;;;;23.75;19.00;;;;;10.05;75.10;101618.28;5047173;28;45030;-80
2022/11/30 03:03:56;;;;;;;;;28.00;23.00;;;;;10.05;75.00;101614.75;5029347;28;45459;-85
2022/11/30 03:06:22;;;;;;;;;21.75;19.25;;;;;9.91;74.84;101586.91;5047154;28;45041;-82
2022/11/30 03:08:47;;;;;;;;;22.00;18.00;;;;;10.04;74.90;101618.19;5047949;28;45151;-85
2022/11/30 03:11:12;;;;;;;;;21.33;17.67;;;;;10.00;74.80;101616.22;5031962;28;47382;-84
2022/11/30 03:13:37;;;;;;;;;18.00;15.33;;;;;9.83;74.86;101587.38;5050831;28;44956;-84
2022/11/30 03:16:11;;;;;;;;;20.00;18.67;;;;;9.98;74.61;101621.41;5051190;28;45264;-85
2022/11/30 03:18:37;;;;;;;;;23.00;19.25;;;;;9.79;74.54;101590.66;5031759;28;45405;-83
2022/11/30 03:21:10;;;;;;;;;22.50;20.75;;;;;9.74;74.81;101589.53;5050872;28;45961;-86
2022/11/30 03:23:37;;;;;;;;;21.00;20.00;;;;;9.66;74.40;101584.75;5050489;28;45271;-82
2022/11/30 03:26:04;;;;;;;;;16.00;15.00;;;;;9.81;74.60;101606.53;5050871;28;45141;-84
2022/11/30 03:28:30;;;;;;;;;16.75;15.75;;;;;9.86;75.02;101625.16;5050488;28;45174;-86
2022/11/30 03:30:56;;;;;;;;;15.00;14.50;;;;;9.86;74.49;101622.50;5050425;28;45276;-85
2022/11/30 03:33:22;;;;;;;;;14.50;13.25;;;;;9.72;74.43;101595.53;5051006;28;45671;-85
2022/11/30 03:35:47;;;;;;;;;15.75;15.00;;;;;9.73;74.50;101611.38;5050326;28;45358;-85
2022/11/30 03:38:13;;;;;;;;;20.00;15.00;;;;;9.72;74.48;101611.28;5050184;28;48429;-79
2022/11/30 03:40:38;;;;;;;;;20.50;18.25;;;;;9.74;74.52;101610.53;5050277;28;45523;-83
2022/11/30 03:43:03;;;;;;;;;17.33;16.00;;;;;9.87;74.36;101637.44;5050121;28;45046;-83
2022/11/30 03:45:29;;;;;;;;;14.50;14.00;;;;;9.74;74.29;101622.75;5050037;28;45109;-80
2022/11/30 03:47:54;;;;;;;;;15.50;14.50;;;;;9.74;74.18;101628.91;5051077;28;44987;-81
2022/11/30 03:50:20;;;;;;;;;15.50;15.00;;;;;9.74;74.24;101633.25;5050134;28;45517;-83
2022/11/30 03:52:45;;;;;;;;;11.50;11.00;;;;;9.62;74.19;101617.78;5050877;28;45354;-82
2022/11/30 03:55:10;;;;;;;;;14.67;13.00;;;;;9.75;74.24;101645.56;5032274;28;45174;-85
2022/11/30 03:57:36;;;;;;;;;14.33;14.00;;;;;9.81;74.19;101664.28;5051252;28;45290;-85
2022/11/30 04:00:03;;;;;;;;;14.67;13.00;;;;;9.78;74.16;101662.38;5070337;28;58311;-85
2022/11/30 04:02:28;;;;;;;;;14.25;13.75;;;;;9.76;74.35;101673.66;5061080;28;45681;-81
2022/11/30 04:04:53;;;;;;;;;14.33;13.00;;;;;9.57;74.18;101638.53;5050023;28;56514;-80
2022/11/30 04:07:19;;;;;;;;;20.00;14.75;;;;;9.55;74.11;101641.88;5050297;28;45313;-83
2022/11/30 04:09:44;;;;;;;;;13.33;12.00;;;;;9.68;74.38;101685.44;5050273;28;49285;-84
2022/11/30 04:12:09;;;;;;;;;15.00;13.25;;;;;9.49;74.29;101642.47;5049818;28;45080;-85
2022/11/30 04:14:35;;;;;;;;;11.67;10.67;;;;;9.65;74.10;101675.66;5057958;28;50991;-83
2022/11/30 04:17:00;;;;;;;;;10.00;9.67;;;;;9.45;74.24;101647.47;5069892;28;55372;-85
2022/11/30 04:19:25;;;;;;;;;11.33;10.67;;;;;9.60;74.14;101674.53;5069704;28;46123;-84
2022/11/30 04:21:50;;;;;;;;;13.67;13.00;;;;;9.45;74.33;101651.00;5070388;28;45380;-84
2022/11/30 04:24:16;;;;;;;;;11.75;10.00;;;;;9.52;74.35;101670.63;5070299;28;45129;-84
2022/11/30 04:26:41;;;;;;;;;11.00;10.00;;;;;9.56;74.13;101680.47;5070399;28;44855;-82
2022/11/30 04:29:08;;;;;;;;;11.50;10.50;;;;;9.55;74.39;101676.91;5069999;28;46772;-82
2022/11/30 04:31:33;;;;;;;;;11.50;10.00;;;;;9.54;74.38;101682.09;5069575;28;44923;-82
2022/11/30 04:33:58;;;;;;;;;10.00;9.00;;;;;9.47;74.19;101672.09;5070505;28;45086;-80
2022/11/30 04:36:24;;;;;;;;;8.33;7.33;;;;;9.28;74.29;101652.72;5049509;28;45110;-84
2022/11/30 04:38:49;;;;;;;;;11.33;9.00;;;;;9.48;74.35;101687.00;5050142;28;49367;-85
2022/11/30 04:41:14;;;;;;;;;11.00;9.00;;;;;9.39;74.12;101676.91;5048453;28;44696;-83
2022/11/30 04:43:40;;;;;;;;;8.50;7.25;;;;;9.41;74.15;101697.97;5049673;28;53086;-84
2022/11/30 04:46:06;;;;;;;;;8.50;7.75;;;;;9.18;74.23;101663.53;5049592;28;45156;-85
2022/11/30 04:48:32;;;;;;;;;9.75;8.50;;;;;9.29;74.10;101693.88;5049174;28;45056;-84
2022/11/30 04:51:05;;;;;;;;;10.00;8.00;;;;;9.23;74.22;101682.16;5056962;28;45531;-86
2022/11/30 04:53:31;;;;;;;;;8.25;7.75;;;;;9.09;74.07;101660.41;5069441;28;45220;-83
2022/11/30 04:55:57;;;;;;;;;11.25;9.00;;;;;9.13;74.16;101680.75;5070237;28;44986;-85
2022/11/30 04:58:22;;;;;;;;;12.50;11.00;;;;;9.08;74.43;101676.97;5062510;28;45711;-84
2022/11/30 05:00:47;;;;;;;;;8.75;8.50;;;;;9.28;74.47;101707.81;5049450;28;45094;-84
2022/11/30 05:03:13;;;;;;;;;9.67;9.00;;;;;9.26;74.28;101706.84;5048971;28;45427;-86
2022/11/30 05:05:38;;;;;;;;;9.33;8.67;;;;;9.21;74.41;101696.88;5049372;28;44966;-81
2022/11/30 05:08:03;;;;;;;;;10.67;10.00;;;;;9.06;74.25;101668.09;5049081;28;52315;-81
2022/11/30 05:10:29;;;;;;;;;10.67;9.00;;;;;9.21;74.32;101702.13;5048109;28;51571;-84
2022/11/30 05:12:55;;;;;;;;;10.00;10.00;;;;;9.17;74.36;101697.56;5058209;28;45146;-81
2022/11/30 05:15:21;;;;;;;;;13.25;10.75;;;;;9.16;74.00;101691.41;5069524;28;45041;-81
2022/11/30 05:17:47;;;;;;;;;8.50;7.00;;;;;9.14;74.21;101698.28;5064263;28;45903;-81
2022/11/30 05:20:13;;;;;;;;;8.75;7.75;;;;;8.97;74.38;101664.97;5057086;28;44858;-81
2022/11/30 05:22:38;;;;;;;;;8.00;7.50;;;;;9.03;74.41;101673.19;5069703;28;45198;-79
2022/11/30 05:25:05;;;;;;;;;8.00;7.33;;;;;9.10;74.36;101688.44;5054684;28;45010;-84
2022/11/30 05:27:30;;;;;;;;;8.00;6.75;;;;;8.99;74.35;101679.97;5048548;28;45260;-80
2022/11/30 05:29:56;;;;;;;;;6.75;6.00;;;;;9.08;74.16;101692.69;5049464;28;45357;-82
2022/11/30 05:32:21;;;;;;;;;7.50;6.50;;;;;8.99;73.93;101674.72;5047500;28;45001;-82
2022/11/30 05:34:46;;;;;;;;;7.00;7.00;;;;;9.05;74.06;101684.66;5049282;28;45175;-80
2022/11/30 05:37:11;;;;;;;;;6.00;6.00;;;;;9.00;74.26;101686.09;5048391;28;60231;-80
2022/11/30 05:39:37;;;;;;;;;8.00;8.00;;;;;9.05;74.46;101685.53;5048793;28;45137;-81
2022/11/30 05:42:02;;;;;;;;;6.00;6.00;;;;;8.86;74.35;101647.72;5048696;28;45109;-81
2022/11/30 05:44:27;;;;;;;;;8.00;7.25;;;;;8.96;74.35;101673.63;5048478;28;45270;-79
2022/11/30 05:46:53;;;;;;;;;5.50;4.50;;;;;9.05;74.34;101690.78;5047365;28;45153;-84
2022/11/30 05:49:18;;;;;;;;;9.67;8.67;;;;;8.84;74.16;101657.25;5047997;28;48479;-84
2022/11/30 05:51:43;;;;;;;;;10.00;9.00;;;;;8.92;73.91;101679.56;5047257;28;46031;-82
2022/11/30 05:54:09;;;;;;;;;11.00;9.33;;;;;8.72;74.00;101644.38;5048836;28;45431;-83
2022/11/30 05:56:34;;;;;;;;;7.00;7.00;;;;;8.93;74.14;101689.22;5047501;28;45684;-80
2022/11/30 05:58:59;;;;;;;;;11.33;10.33;;;;;8.89;73.97;101698.63;5048204;28;56760;-83
2022/11/30 06:01:27;;;;;;;;;8.00;8.00;;;;;8.85;74.18;101700.97;5046462;28;45333;-82
2022/11/30 06:03:53;;;;;;;;;9.50;9.25;;;;;8.72;74.27;101675.81;5048042;28;45163;-79
2022/11/30 06:06:18;;;;;;;;;8.00;7.75;;;;;8.77;74.15;101688.34;5048432;28;46084;-79
2022/11/30 06:08:45;;;;;;;;;9.25;6.75;;;;;8.79;74.25;101691.94;5048412;28;45019;-82
2022/11/30 06:11:11;;;;;;;;;11.25;9.00;;;;;8.69;74.14;101681.75;5047953;28;45346;-80
2022/11/30 06:13:38;;;;;;;;;13.75;12.00;;;;;8.61;74.13;101658.56;5046493;28;45135;-80
2022/11/30 06:16:04;;;;;;;;;10.75;10.25;;;;;8.76;74.28;101697.00;5047718;28;46166;-80
2022/11/30 06:18:30;;;;;;;;;15.50;14.00;;;;;8.60;74.56;101667.22;5045528;28;45144;-81
2022/11/30 06:21:03;;;;;;;;;15.50;12.00;;;;;8.75;74.31;101705.69;5048147;28;44998;-81
2022/11/30 06:23:29;;;;;;;;;11.25;9.75;;;;;8.74;74.49;101688.16;5028164;28;45080;-79
2022/11/30 06:25:54;;;;;;;;;13.75;11.25;;;;;8.75;74.35;101691.69;5039098;28;45209;-80
2022/11/30 06:28:20;;;;;;;;;9.00;9.00;;;;;8.78;74.25;101698.03;5047935;28;45313;-81
2022/11/30 06:30:45;;;;;;;;;12.25;11.00;;;;;8.78;74.32;101691.88;5029848;28;45144;-79
2022/11/30 06:33:11;;;;;;;;;9.00;8.33;;;;;8.70;74.23;101685.28;5047506;28;44894;-80
2022/11/30 06:35:36;;;;;;;;;8.00;6.25;;;;;8.76;74.19;101696.09;5046805;28;62756;-80
2022/11/30 06:38:01;;;;;;;;;7.00;7.00;;;;;8.62;74.30;101673.44;5047760;28;57489;-79
2022/11/30 06:40:27;;;;;;;;;7.33;7.33;;;;;8.75;74.08;101697.84;5047647;28;45340;-80
2022/11/30 06:42:53;;;;;;;;;8.25;7.25;;;;;8.60;74.34;101665.50;5047939;28;45022;-79
2022/11/30 06:45:18;;;;;;;;;8.00;7.75;;;;;8.63;74.19;101673.56;5050038;28;45148;-80
2022/11/30 06:47:43;;;;;;;;;11.00;9.67;;;;;8.78;74.20;101698.03;5051015;28;45472;-79
2022/11/30 06:50:10;;;;;;;;;10.00;9.33;;;;;8.80;74.41;101703.34;5051362;28;44990;-80
2022/11/30 06:52:35;;;;;;;;;9.25;8.75;;;;;8.60;74.02;101673.38;5051043;28;45087;-80
2022/11/30 06:55:00;;;;;;;;;9.75;8.00;;;;;8.69;74.23;101691.34;5051773;28;46140;-84
2022/11/30 06:57:27;;;;;;;;;8.25;8.00;;;;;8.75;74.25;101700.44;5050851;28;45094;-84
2022/11/30 06:59:52;;;;;;;;;12.00;9.50;;;;;8.77;74.43;101708.44;5051312;28;45146;-84
2022/11/30 07:02:18;;;;;;;;;15.00;12.00;;;;;8.69;74.59;101681.75;5049839;28;45404;-79
2022/11/30 07:04:43;;;;;;;;;12.67;10.67;;;;;8.78;74.65;101694.50;5050123;28;61169;-80
2022/11/30 07:07:08;;;;;;;;;10.50;8.00;;;;;8.87;74.55;101709.84;5050226;28;45112;-79
2022/11/30 07:09:34;;;;;;;;;10.50;9.25;;;;;8.81;74.59;101699.00;5049413;28;45354;-80
2022/11/30 07:12:00;;;;;;;;;10.00;9.50;;;;;8.75;74.51;101689.06;5049298;28;49252;-81
2022/11/30 07:14:25;;;;;;;;;12.75;9.00;;;;;8.68;74.54;101673.81;5056224;28;45936;-81
2022/11/30 07:16:51;;;;;;;;;11.75;10.25;;;;;8.91;74.56;101717.94;5068380;28;45242;-80
2022/11/30 07:19:16;;;;;;;;;13.50;10.75;;;;;8.79;74.66;101691.94;5059458;28;45108;-81
2022/11/30 07:21:42;;;;;;;;;13.50;12.50;;;;;8.96;74.42;101723.47;5047193;28;45344;-81
2022/11/30 07:26:52;;;;;;;;;13.50;12.50;;;;;8.97;74.45;101720.94;5059581;28;45526;-85
2022/11/30 07:29:17;;;;;;;;;15.50;13.25;;;;;8.99;74.30;101726.25;5070638;28;45033;-80
2022/11/30 07:31:48;;;;;;;;;12.50;11.25;;;;;8.81;74.24;101704.25;5054858;28;61075;-80
2022/11/30 07:34:14;;;;;;;;;15.00;12.75;;;;;8.98;74.33;101729.72;5049755;28;45313;-84
2022/11/30 07:36:39;;;;;;;;;12.00;10.67;;;;;8.95;74.02;101729.53;5049361;28;60452;-80
2022/11/30 07:39:04;;;;;;;;;13.50;12.50;;;;;9.00;74.46;101736.81;5050648;28;45056;-80
2022/11/30 07:41:30;;;;;;;;;19.75;15.00;;;;;8.93;74.46;101724.19;5031824;28;45141;-81
2022/11/30 07:43:55;;;;;;;;;18.50;14.75;;;;;9.04;74.43;101746.69;5050405;28;44971;-84
2022/11/30 07:46:20;;;;;;;;;12.50;12.25;;;;;9.07;74.51;101745.97;5049954;28;45343;-80
2022/11/30 07:48:46;;;;;;;;;13.75;13.00;;;;;8.76;74.44;101689.16;5050133;28;45139;-80
2022/11/30 07:51:20;;;;;;;;;14.00;12.00;;;;;9.03;74.46;101733.50;5050648;28;45354;-81
2022/11/30 07:53:46;;;;;;;;;14.50;14.00;;;;;9.08;74.38;101739.00;5050546;28;45058;-80
2022/11/30 07:56:14;;;;;;;;;12.25;11.50;;;;;9.04;74.40;101732.66;5049024;28;45082;-81
2022/11/30 07:58:40;;;;;;;;;14.25;11.50;;;;;9.19;74.34;101751.00;5049899;28;45210;-81
2022/11/30 08:01:11;;;;;;;;;14.25;12.25;;;;;9.22;74.32;101751.16;5049711;28;45106;-83
2022/11/30 08:03:37;;;;;;;;;13.25;10.75;;;;;9.10;74.11;101725.13;5032568;28;46155;-81
2022/11/30 08:06:03;;;;;;;;;14.50;13.25;;;;;9.26;74.21;101750.50;5031866;28;45445;-85
2022/11/30 08:08:30;;;;;;;;;14.25;11.25;;;;;9.27;74.37;101750.59;5040822;28;45663;-82
2022/11/30 08:10:56;;;;;;;;;15.50;13.50;;;;;9.11;74.11;101741.78;5049874;28;45217;-81
2022/11/30 08:13:21;;;;;;;;;15.75;13.00;;;;;9.12;74.34;101738.34;5049019;28;45106;-84
2022/11/30 08:15:46;;;;;;;;;15.75;12.25;;;;;9.24;74.34;101755.66;5048998;28;45462;-80
2022/11/30 08:18:12;;;;;;;;;13.00;12.33;;;;;9.18;74.20;101743.94;5049001;28;56394;-81
2022/11/30 08:20:37;;;;;;;;;20.33;17.00;;;;;9.33;74.52;101764.88;5048508;28;55407;-80
2022/11/30 08:23:02;;;;;;;;;16.00;13.00;;;;;9.24;74.41;101747.78;5046946;28;58940;-84
2022/11/30 08:25:28;;;;;;;;;16.67;14.00;;;;;9.22;74.12;101738.97;5049717;28;58087;-84
2022/11/30 08:27:53;;;;;;;;;15.00;13.33;;;;;9.29;74.50;101740.19;5049275;28;55594;-80
2022/11/30 08:30:18;;;;;;;;;14.00;13.00;;;;;9.40;74.17;101757.41;5048643;28;45005;-85
2022/11/30 08:32:44;;;;;;;;;18.25;15.00;;;;;9.28;74.22;101747.16;5047850;28;45169;-84
2022/11/30 08:35:09;;;;;;;;;16.33;13.00;;;;;9.50;74.36;101769.31;5045406;28;45239;-80
2022/11/30 08:37:36;;;;;;;;;17.00;15.00;;;;;9.52;73.96;101763.34;5047622;28;45451;-81
2022/11/30 08:40:02;;;;;;;;;16.75;15.00;;;;;9.54;73.77;101761.72;5048379;28;45323;-79
2022/11/30 08:42:27;;;;;;;;;14.75;14.00;;;;;9.36;73.75;101730.94;5044448;28;46243;-90
2022/11/30 08:44:53;;;;;;;;;15.50;14.50;;;;;8.88;73.70;101657.50;5049682;28;45111;-88
2022/11/30 08:47:18;;;;;;;;;15.33;14.00;;;;;9.61;73.76;101762.97;5035518;28;45579;-88
2022/11/30 08:49:43;;;;;;;;;14.67;11.33;;;;;9.30;73.45;101715.75;5048780;28;45103;-85
2022/11/30 08:52:09;;;;;;;;;18.00;13.75;;;;;9.26;73.52;101701.59;5048652;28;45247;-85
2022/11/30 08:54:35;;;;;;;;;18.25;14.00;;;;;9.50;73.57;101743.09;5048696;28;45401;-88
2022/11/30 08:57:00;;;;;;;;;15.00;14.00;;;;;9.22;73.53;101699.59;5037186;28;45141;-90
2022/11/30 08:59:26;;;;;;;;;16.00;14.75;;;;;9.02;73.92;101650.41;5046455;28;45153;-86
2022/11/30 09:01:51;;;;;;;;;16.00;15.00;;;;;9.14;73.78;101658.94;5044364;28;55361;-85
2022/11/30 09:04:17;;;;;;;;;15.33;13.00;;;;;9.34;73.79;101687.97;5048409;28;45276;-86
2022/11/30 09:06:42;;;;;;;;;19.75;18.50;;;;;9.53;73.35;101720.53;5047772;28;45124;-84
2022/11/30 09:09:07;;;;;;;;;15.33;14.33;;;;;9.07;73.90;101648.94;5048022;28;44994;-85
2022/11/30 09:11:33;;;;;;;;;17.75;15.25;;;;;9.85;73.67;101792.25;5048675;28;45428;-85
2022/11/30 09:14:00;;;;;;;;;17.25;14.50;;;;;9.81;73.31;101775.44;5029488;28;45148;-85
2022/11/30 09:16:26;;;;;;;;;15.25;13.25;;;;;9.81;73.23;101772.81;5046945;28;44995;-85
2022/11/30 09:18:52;;;;;;;;;19.00;17.00;;;;;9.75;73.34;101754.13;5045293;28;45334;-82
2022/11/30 09:21:22;;;;;;;;;19.50;14.75;;;;;9.90;73.10;101787.25;5047983;28;45679;-82
2022/11/30 09:23:48;;;;;;;;;17.00;13.75;;;;;9.54;73.19;101724.97;5048283;28;45368;-82
2022/11/30 09:26:17;;;;;;;;;21.50;17.75;;;;;9.90;73.16;101785.56;5048791;28;45196;-82
2022/11/30 09:28:44;;;;;;;;;20.50;17.75;;;;;9.79;73.13;101766.56;5048283;28;45120;-80
2022/11/30 09:31:22;;;;;;;;;19.25;16.75;;;;;9.70;73.35;101752.03;5048195;28;45239;-83
2022/11/30 09:33:47;;;;;;;;;19.75;17.25;;;;;9.83;73.18;101768.53;5048247;28;45224;-81
2022/11/30 09:36:15;;;;;;;;;18.75;16.25;;;;;9.81;73.03;101766.69;5048474;28;45214;-81
2022/11/30 09:38:41;;;;;;;;;19.75;13.50;;;;;9.93;73.29;101779.56;5042031;28;45151;-81
2022/11/30 09:41:45;;;;;;;;;18.75;17.50;;;;;10.05;73.14;101789.00;5038629;28;45373;-81
2022/11/30 09:44:28;;;;;;;;;21.75;18.75;;;;;10.07;72.91;101787.34;5014931;28;45295;-82
2022/11/30 09:46:58;;;;;;;;;20.00;16.75;;;;;9.95;72.96;101759.50;5033642;28;45101;-83
2022/11/30 09:49:29;;;;;;;;;19.50;17.50;;;;;10.03;72.84;101780.13;5048097;28;45226;-82
2022/11/30 09:51:59;;;;;;;;;17.50;16.75;;;;;10.15;72.46;101793.03;5042719;28;45117;-82
2022/11/30 09:54:34;;;;;;;;;21.00;18.50;;;;;9.93;72.79;101756.81;5043675;28;45232;-82
2022/11/30 09:57:07;;;;;;;;;25.25;20.25;;;;;10.01;72.63;101775.63;5028984;28;45227;-82
2022/11/30 09:59:36;;;;;;;;;21.00;15.00;;;;;10.09;72.72;101790.94;5045548;28;45114;-81
2022/11/30 10:02:14;;;;;;;;;23.25;18.00;;;;;10.07;72.60;101782.09;5037639;28;47069;-82
2022/11/30 10:04:39;;;;;;;;;16.25;15.00;;;;;10.02;72.72;101754.69;5044288;28;45781;-82
2022/11/30 10:07:23;;;;;;;;;26.75;20.50;;;;;10.31;72.67;101785.16;5040669;28;45219;-81
2022/11/30 10:10:20;;;;;;;;;22.00;19.50;;;;;10.33;72.58;101783.47;5041789;28;45152;-82
2022/11/30 10:12:59;;;;;;;;;22.00;20.00;;;;;10.44;72.39;101788.38;5003686;28;46158;-82
2022/11/30 10:15:53;;;;;;;;;25.50;24.50;;;;;10.50;72.20;101783.47;5048863;28;45092;-82
2022/11/30 10:18:56;;;;;;;;;22.00;18.00;;;;;10.51;71.83;101783.53;5065290;28;44992;-83
2022/11/30 10:21:40;;;;;;;;;20.50;17.50;;;;;10.45;71.93;101777.97;5018817;28;45160;-83
2022/11/30 10:24:08;;;;;;;;;14.00;11.50;;;;;10.51;71.94;101787.91;5047657;28;45546;-82
2022/11/30 10:26:37;;;;;;;;;22.25;17.75;;;;;10.53;71.66;101795.03;5029471;28;45148;-84
2022/11/30 10:29:41;;;;;;;;;20.75;17.75;;;;;10.19;71.55;101723.13;5047277;28;45146;-83
2022/11/30 10:32:19;;;;;;;;;22.50;20.25;;;;;10.47;71.31;101767.53;5030333;28;45791;-82
2022/11/30 10:34:51;;;;;;;;;22.25;19.00;;;;;10.51;71.14;101769.50;5044186;28;45893;-82
2022/11/30 10:37:20;;;;;;;;;22.25;19.75;;;;;10.56;71.05;101779.44;5046056;28;45886;-82
2022/11/30 10:39:54;;;;;;;;;22.00;18.75;;;;;10.64;71.44;101781.53;5048095;28;45127;-82
2022/11/30 10:42:39;;;;;;;;;25.50;19.50;;;;;10.48;71.23;101754.47;5047776;28;45333;-82
2022/11/30 10:45:16;;;;;;;;;22.75;22.25;;;;;10.66;71.00;101775.53;5046310;28;45197;-85
2022/11/30 10:47:53;;;;;;;;;20.00;18.75;;;;;10.61;70.75;101773.50;5047851;28;45574;-82
2022/11/30 10:50:22;;;;;;;;;23.50;19.00;;;;;10.42;71.29;101737.50;5032929;28;45248;-85
2022/11/30 10:52:52;;;;;;;;;22.50;21.50;;;;;10.61;71.03;101765.63;5039882;28;45325;-82
2022/11/30 10:55:22;;;;;;;;;22.25;20.25;;;;;10.70;70.85;101769.63;5067582;28;45680;-82
2022/11/30 10:57:50;;;;;;;;;25.75;22.75;;;;;10.60;70.87;101730.53;5046596;28;45487;-82
2022/11/30 11:00:17;;;;;;;;;26.25;21.50;;;;;10.92;70.96;101752.25;5045831;28;45321;-83
2022/11/30 11:02:48;;;;;;;;;25.75;22.75;;;;;10.89;70.85;101728.47;5045818;28;45357;-82
2022/11/30 11:05:21;;;;;;;;;28.75;23.00;;;;;11.10;70.42;101750.53;5046258;28;45643;-82
2022/11/30 11:08:02;;;;;;;;;21.50;20.50;;;;;10.94;70.41;101716.44;5051738;28;45105;-83
2022/11/30 11:10:48;;;;;;;;;30.00;25.50;;;;;11.05;70.44;101726.63;5049182;28;45247;-84
2022/11/30 11:13:38;;;;;;;;;23.50;21.75;;;;;11.21;70.04;101754.59;5047279;28;45246;-83
2022/11/30 11:16:07;;;;;;;;;22.25;20.25;;;;;11.14;70.17;101738.44;5029120;28;47559;-82
2022/11/30 11:18:34;;;;;;;;;25.00;22.00;;;;;11.20;70.08;101728.22;5047373;28;45216;-82
2022/11/30 11:21:06;;;;;;;;;25.75;24.00;;;;;11.35;69.67;101744.72;5045923;28;45348;-83
2022/11/30 11:23:37;;;;;;;;;24.25;22.00;;;;;11.34;69.52;101746.47;5047014;28;45265;-81
2022/11/30 11:26:14;;;;;;;;;17.75;15.75;;;;;11.16;69.90;101737.69;5049008;28;45218;-82